Time;durP1;ratioP1;P1;durP2;ratioP2;P2;SDS_P1;SDS_P2;PMS_P1;PMS_P2;Temp;Humidity;BMP_temperature;BMP_pressure;BME280_temperature;BME280_humidity;BME280_pressure;Samples;Min_cycle;Max_cycle;Signal;HPM_P1;HPM_P2
2022/01/06 00:01:01;;;;;;;8.47;2.77;;;;;;;1.87;100.00;98218.16;4805037;29;20278;-61
2022/01/06 00:03:27;;;;;;;8.60;2.77;;;;;;;1.80;100.00;98218.00;4805171;29;20749;-61
2022/01/06 00:05:55;;;;;;;6.00;2.67;;;;;;;1.72;100.00;98219.78;4803913;29;20302;-61
2022/01/06 00:08:20;;;;;;;8.77;2.70;;;;;;;1.66;100.00;98220.44;4804988;29;20378;-61
2022/01/06 00:10:48;;;;;;;7.87;2.60;;;;;;;1.70;100.00;98230.50;4803787;29;20276;-61
2022/01/06 00:13:18;;;;;;;10.83;2.40;;;;;;;1.76;100.00;98223.72;4804932;29;20035;-61
2022/01/06 00:16:01;;;;;;;6.37;2.50;;;;;;;1.73;100.00;98231.97;4804748;29;20270;-61
2022/01/06 00:23:59;;;;;;;9.47;2.67;;;;;;;1.75;100.00;98229.97;4804803;29;20779;-61
2022/01/06 00:26:25;;;;;;;7.83;2.70;;;;;;;1.68;100.00;98226.38;4804748;29;20294;-61
2022/01/06 00:28:50;;;;;;;6.50;2.50;;;;;;;1.75;100.00;98222.91;4805021;29;20030;-61
2022/01/06 00:31:16;;;;;;;5.93;2.50;;;;;;;1.79;100.00;98221.59;4803498;29;20054;-61
2022/01/06 00:33:41;;;;;;;6.63;2.47;;;;;;;1.68;100.00;98232.47;4804912;29;20083;-61
2022/01/06 00:36:07;;;;;;;5.90;2.37;;;;;;;1.67;100.00;98224.72;4804621;29;20027;-61
2022/01/06 00:38:33;;;;;;;6.90;2.70;;;;;;;1.70;100.00;98227.84;4804735;29;20042;-61
2022/01/06 00:40:59;;;;;;;10.07;2.70;;;;;;;1.80;100.00;98228.53;4804550;29;20031;-61
2022/01/06 00:43:24;;;;;;;9.80;2.80;;;;;;;1.77;100.00;98230.66;4803395;29;20027;-61
2022/01/06 00:45:50;;;;;;;5.23;2.47;;;;;;;1.63;100.00;98228.66;4804378;29;20795;-60
2022/01/06 00:48:16;;;;;;;5.57;2.50;;;;;;;1.60;100.00;98229.81;4804269;29;20063;-61
2022/01/06 00:50:43;;;;;;;8.13;2.73;;;;;;;1.70;100.00;98237.56;4818427;29;20042;-60
2022/01/06 00:53:09;;;;;;;8.00;2.77;;;;;;;1.70;100.00;98233.13;4804376;29;20042;-61
2022/01/06 00:55:36;;;;;;;6.57;2.63;;;;;;;1.58;100.00;98238.84;4804441;29;20283;-61
2022/01/06 00:58:03;;;;;;;5.90;2.80;;;;;;;1.61;100.00;98235.91;4804235;29;20279;-60
2022/01/06 01:00:38;;;;;;;6.53;2.60;;;;;;;1.72;100.00;98240.88;4804236;29;20274;-61
2022/01/06 01:03:09;;;;;;;9.27;2.80;;;;;;;1.67;100.00;98241.34;4804241;29;20278;-61
2022/01/06 01:05:34;;;;;;;7.67;2.70;;;;;;;1.64;100.00;98240.84;4804284;29;20803;-61
2022/01/06 01:08:00;;;;;;;6.60;2.60;;;;;;;1.60;100.00;98245.63;4804103;29;20275;-61
2022/01/06 01:10:25;;;;;;;5.67;2.43;;;;;;;1.64;100.00;98252.19;4804206;29;20038;-60
2022/01/06 01:12:51;;;;;;;9.90;3.07;;;;;;;1.66;100.00;98246.75;4804297;29;20058;-61
2022/01/06 01:15:20;;;;;;;6.10;2.30;;;;;;;1.61;100.00;98236.75;4804238;29;20046;-60
2022/01/06 01:17:48;;;;;;;7.57;2.83;;;;;;;1.63;100.00;98236.56;4802930;29;20045;-61
2022/01/06 01:20:16;;;;;;;6.53;2.50;;;;;;;1.60;100.00;98242.16;4804050;29;20274;-61
2022/01/06 01:22:42;;;;;;;6.13;2.53;;;;;;;1.65;100.00;98248.56;4804402;29;20285;-60
2022/01/06 01:25:08;;;;;;;9.33;3.00;;;;;;;1.52;100.00;98252.66;4804101;29;20283;-61
2022/01/06 01:27:40;;;;;;;7.07;2.77;;;;;;;1.50;100.00;98244.91;4804986;29;20634;-60
2022/01/06 01:30:12;;;;;;;5.30;2.40;;;;;;;1.58;100.00;98258.13;4806616;29;20278;-60
2022/01/06 01:32:40;;;;;;;10.43;2.73;;;;;;;1.53;100.00;98263.03;4808006;29;20270;-60
2022/01/06 01:35:08;;;;;;;9.23;2.60;;;;;;;1.56;100.00;98256.63;4807956;29;20283;-60
2022/01/06 01:37:36;;;;;;;7.72;2.78;;;;;;;1.57;100.00;98255.66;4807951;29;20270;-61
2022/01/06 01:40:04;;;;;;;7.37;2.80;;;;;;;1.40;100.00;98252.94;4807578;29;20039;-60
2022/01/06 01:42:30;;;;;;;9.50;2.60;;;;;;;1.55;100.00;98261.06;4807645;29;20359;-60
2022/01/06 01:44:56;;;;;;;6.80;2.97;;;;;;;1.42;100.00;98263.31;4807683;29;20274;-61
2022/01/06 01:50:16;;;;;;;8.93;2.93;;;;;;;1.56;100.00;98267.16;4807725;29;20108;-61
2022/01/06 01:52:52;;;;;;;6.70;2.70;;;;;;;1.34;100.00;98260.69;4807678;29;20274;-60
2022/01/06 01:55:21;;;;;;;9.73;2.70;;;;;;;1.43;100.00;98263.16;4806174;29;20275;-61
2022/01/06 01:57:47;;;;;;;9.00;2.90;;;;;;;1.42;100.00;98266.78;4821088;29;20778;-61
2022/01/06 02:00:14;;;;;;;6.23;2.60;;;;;;;1.42;100.00;98269.41;4806217;29;20354;-61
2022/01/06 02:02:41;;;;;;;7.23;2.60;;;;;;;1.52;100.00;98268.44;4807359;29;20491;-60
2022/01/06 02:05:08;;;;;;;6.13;2.33;;;;;;;1.50;100.00;98268.59;4806125;29;20290;-61
2022/01/06 02:07:35;;;;;;;6.70;2.40;;;;;;;1.53;100.00;98275.38;4807234;29;20283;-61
2022/01/06 02:10:02;;;;;;;7.40;2.50;;;;;;;1.51;100.00;98272.06;4807227;29;20637;-61
2022/01/06 02:12:32;;;;;;;5.93;2.20;;;;;;;1.51;100.00;98275.53;4807026;29;20287;-61
2022/01/06 02:14:58;;;;;;;6.70;2.50;;;;;;;1.47;100.00;98276.84;4807252;29;20614;-61
2022/01/06 02:17:24;;;;;;;6.33;2.67;;;;;;;1.47;100.00;98261.06;4807188;29;20279;-61
2022/01/06 02:19:57;;;;;;;8.13;2.50;;;;;;;1.53;100.00;98267.47;4807039;29;20047;-61
2022/01/06 02:22:23;;;;;;;6.88;2.88;;;;;;;1.48;100.00;98267.97;4806995;29;20039;-61
2022/01/06 02:24:49;;;;;;;12.03;3.20;;;;;;;1.43;100.00;98264.97;4807172;29;20184;-61
2022/01/06 02:27:16;;;;;;;9.67;2.77;;;;;;;1.53;100.00;98264.84;4806728;29;20030;-61
2022/01/06 02:29:42;;;;;;;4.40;2.40;;;;;;;1.46;100.00;98264.66;4806846;29;20354;-61
2022/01/06 02:32:10;;;;;;;8.70;2.77;;;;;;;1.49;100.00;98267.00;4806695;29;20351;-61
2022/01/06 02:34:36;;;;;;;7.73;3.33;;;;;;;1.34;100.00;98273.84;4806832;29;20267;-61
2022/01/06 02:37:03;;;;;;;7.30;2.80;;;;;;;1.46;100.00;98275.19;4806998;29;20259;-61
2022/01/06 02:39:29;;;;;;;7.23;2.90;;;;;;;1.52;100.00;98263.19;4806478;29;20137;-61
2022/01/06 02:41:54;;;;;;;8.53;3.47;;;;;;;1.40;100.00;98267.91;4806630;29;20353;-60
2022/01/06 02:44:23;;;;;;;10.27;3.33;;;;;;;1.51;100.00;98272.88;4806654;29;20030;-61
2022/01/06 02:46:49;;;;;;;7.43;3.10;;;;;;;1.48;100.00;98267.13;4806621;29;20027;-61
2022/01/06 02:49:14;;;;;;;6.97;2.90;;;;;;;1.47;100.00;98265.50;4806191;29;20645;-61
2022/01/06 02:51:41;;;;;;;8.10;3.40;;;;;;;1.46;100.00;98269.94;4806661;29;20027;-61
2022/01/06 02:54:07;;;;;;;10.93;3.67;;;;;;;1.50;100.00;98275.72;4806438;29;20038;-60
2022/01/06 02:56:33;;;;;;;8.03;3.70;;;;;;;1.43;100.00;98275.50;4806353;29;20047;-60
2022/01/06 02:58:59;;;;;;;7.23;3.60;;;;;;;1.43;100.00;98280.78;4806517;29;20347;-61
2022/01/06 03:01:24;;;;;;;7.83;3.90;;;;;;;1.38;100.00;98278.63;4806240;29;20290;-61
2022/01/06 03:03:50;;;;;;;9.30;4.20;;;;;;;1.29;100.00;98279.56;4806312;29;20043;-61
2022/01/06 03:06:15;;;;;;;7.10;3.70;;;;;;;1.45;100.00;98284.91;4806241;29;20035;-61
2022/01/06 03:08:41;;;;;;;11.03;4.30;;;;;;;1.53;100.00;98285.91;4805994;29;20035;-61
2022/01/06 03:11:07;;;;;;;7.97;3.67;;;;;;;1.55;100.00;98282.13;4805935;29;20078;-61
2022/01/06 03:13:33;;;;;;;7.97;3.73;;;;;;;1.54;100.00;98284.91;4805986;29;20106;-61
2022/01/06 03:16:01;;;;;;;8.53;4.00;;;;;;;1.53;100.00;98288.53;4806236;29;20344;-61
2022/01/06 03:18:27;;;;;;;9.67;3.90;;;;;;;1.40;100.00;98288.97;4805805;29;20306;-60
2022/01/06 03:20:53;;;;;;;10.77;4.20;;;;;;;1.39;100.00;98293.41;4805661;29;20270;-61
2022/01/06 03:23:18;;;;;;;7.80;3.73;;;;;;;1.47;100.00;98291.81;4805778;29;20282;-61
2022/01/06 03:25:44;;;;;;;8.50;3.93;;;;;;;1.55;100.00;98297.09;4805613;29;20114;-61
2022/01/06 03:28:10;;;;;;;11.13;4.00;;;;;;;1.49;100.00;98288.06;4805564;29;20038;-61
2022/01/06 03:30:35;;;;;;;10.30;3.90;;;;;;;1.53;100.00;98288.53;4805692;29;20041;-60
2022/01/06 03:33:01;;;;;;;7.87;3.90;;;;;;;1.53;100.00;98292.00;4805651;29;20338;-60
2022/01/06 03:35:27;;;;;;;7.70;3.90;;;;;;;1.52;100.00;98297.41;4805687;29;20034;-61
2022/01/06 03:37:52;;;;;;;7.83;4.23;;;;;;;1.57;100.00;98297.78;4805634;29;20069;-60
2022/01/06 03:40:18;;;;;;;10.10;4.17;;;;;;;1.60;100.00;98303.56;4805417;29;20034;-61
2022/01/06 03:42:44;;;;;;;8.77;4.40;;;;;;;1.60;100.00;98308.00;4804232;29;20533;-61
2022/01/06 03:45:13;;;;;;;10.13;4.77;;;;;;;1.56;100.00;98309.28;4805541;29;20034;-60
2022/01/06 03:47:39;;;;;;;13.27;4.93;;;;;;;1.61;100.00;98307.00;4805276;29;20314;-61
2022/01/06 03:50:05;;;;;;;11.03;4.73;;;;;;;1.53;100.00;98307.78;4804708;29;20344;-61
2022/01/06 03:52:31;;;;;;;8.77;4.50;;;;;;;1.43;100.00;98320.25;4805283;29;20175;-60
2022/01/06 03:54:57;;;;;;;6.90;4.00;;;;;;;1.52;100.00;98308.78;4804157;29;20747;-61
2022/01/06 03:57:22;;;;;;;8.67;4.40;;;;;;;1.57;100.00;98322.28;4805208;29;20057;-61
2022/01/06 03:59:48;;;;;;;10.00;4.53;;;;;;;1.56;100.00;98323.28;4805229;29;20053;-60
2022/01/06 04:02:13;;;;;;;9.07;4.60;;;;;;;1.60;100.00;98318.53;4805081;29;20137;-61
2022/01/06 04:04:42;;;;;;;7.97;4.50;;;;;;;1.61;100.00;98330.72;4805329;29;20525;-61
2022/01/06 04:07:07;;;;;;;9.20;4.80;;;;;;;1.57;100.00;98332.00;4805190;29;20038;-60
2022/01/06 04:09:33;;;;;;;10.23;4.67;;;;;;;1.61;100.00;98325.44;4805194;29;20335;-61
2022/01/06 04:12:01;;;;;;;8.30;4.37;;;;;;;1.59;100.00;98327.41;4805138;29;20474;-60
2022/01/06 04:14:26;;;;;;;10.20;4.53;;;;;;;1.49;100.00;98330.16;4803868;29;20049;-61
2022/01/06 04:16:58;;;;;;;16.43;4.80;;;;;;;1.55;100.00;98329.53;4805050;29;20267;-61
2022/01/06 04:19:25;;;;;;;9.10;4.53;;;;;;;1.58;100.00;98317.84;4804886;29;20042;-61
2022/01/06 04:21:52;;;;;;;11.53;4.80;;;;;;;1.60;100.00;98334.31;4804820;29;20293;-61
2022/01/06 04:24:18;;;;;;;10.83;4.63;;;;;;;1.56;100.00;98338.25;4804795;29;20349;-61
2022/01/06 04:26:43;;;;;;;8.70;4.47;;;;;;;1.57;100.00;98339.91;4804745;29;20714;-60
2022/01/06 04:29:09;;;;;;;7.30;4.63;;;;;;;1.56;100.00;98341.72;4803543;29;20111;-60
2022/01/06 04:31:35;;;;;;;8.73;4.37;;;;;;;1.62;100.00;98340.22;4803522;29;20038;-63
2022/01/06 04:34:00;;;;;;;10.23;5.00;;;;;;;1.66;100.00;98350.28;4804879;29;20050;-61
2022/01/06 04:36:26;;;;;;;7.60;4.57;;;;;;;1.68;100.00;98356.22;4804665;29;20397;-61
2022/01/06 04:38:51;;;;;;;11.67;4.93;;;;;;;1.53;100.00;98351.72;4804877;29;20107;-61
2022/01/06 04:41:17;;;;;;;12.83;4.40;;;;;;;1.55;100.00;98357.66;4804450;29;20030;-61
2022/01/06 04:43:42;;;;;;;8.90;4.23;;;;;;;1.67;100.00;98357.22;4804461;29;20099;-61
2022/01/06 04:46:08;;;;;;;9.37;4.40;;;;;;;1.71;100.00;98360.38;4804433;29;20043;-60
2022/01/06 04:48:35;;;;;;;9.77;4.50;;;;;;;1.69;100.00;98367.59;4804203;29;20453;-61
2022/01/06 04:51:01;;;;;;;13.00;4.50;;;;;;;1.63;100.00;98360.31;4804487;29;20121;-61
2022/01/06 04:53:27;;;;;;;8.80;4.63;;;;;;;1.70;100.00;98364.81;4804347;29;20369;-61
2022/01/06 04:55:54;;;;;;;9.77;4.03;;;;;;;1.67;100.00;98374.81;4804445;29;20034;-61
2022/01/06 04:58:19;;;;;;;8.67;3.97;;;;;;;1.72;100.00;98369.91;4804373;29;20042;-61
2022/01/06 05:00:45;;;;;;;8.43;4.23;;;;;;;1.64;100.00;98378.59;4804422;29;20626;-61
2022/01/06 05:03:11;;;;;;;8.97;4.00;;;;;;;1.72;100.00;98370.75;4804220;29;20466;-61
2022/01/06 05:05:36;;;;;;;11.80;4.30;;;;;;;1.71;100.00;98366.47;4804287;29;20047;-61
2022/01/06 05:08:02;;;;;;;8.93;4.40;;;;;;;1.76;100.00;98366.78;4804297;29;20038;-60
2022/01/06 05:10:28;;;;;;;8.97;4.17;;;;;;;1.76;100.00;98376.50;4804247;29;20435;-61
2022/01/06 05:12:53;;;;;;;11.80;4.40;;;;;;;1.80;100.00;98375.22;4804323;29;20448;-61
2022/01/06 05:15:19;;;;;;;9.47;4.53;;;;;;;1.72;100.00;98369.91;4804225;29;20134;-61
2022/01/06 05:17:44;;;;;;;10.03;4.00;;;;;;;1.72;100.00;98383.09;4804321;29;20088;-60
2022/01/06 05:20:10;;;;;;;7.00;3.73;;;;;;;1.60;100.00;98377.28;4804300;29;20123;-61
2022/01/06 05:22:42;;;;;;;9.80;4.03;;;;;;;1.76;100.00;98379.97;4804266;29;20440;-61
2022/01/06 05:25:09;;;;;;;8.07;3.63;;;;;;;1.66;100.00;98378.44;4804497;29;20641;-61
2022/01/06 05:27:35;;;;;;;9.87;4.97;;;;;;;1.73;100.00;98380.28;4803937;29;20373;-61
2022/01/06 05:30:00;;;;;;;14.27;4.67;;;;;;;1.59;100.00;98380.91;4804193;29;20757;-61
2022/01/06 05:32:26;;;;;;;9.90;4.33;;;;;;;1.64;100.00;98383.03;4804060;29;20030;-61
2022/01/06 05:34:51;;;;;;;11.43;4.60;;;;;;;1.69;100.00;98384.22;4804258;29;20045;-61
2022/01/06 05:37:18;;;;;;;11.57;4.30;;;;;;;1.64;100.00;98386.50;4804115;29;20038;-60
2022/01/06 05:39:43;;;;;;;8.30;3.93;;;;;;;1.53;100.00;98388.59;4804180;29;20860;-60
2022/01/06 05:42:10;;;;;;;11.37;4.47;;;;;;;1.62;100.00;98393.72;4804124;29;20359;-60
2022/01/06 05:44:36;;;;;;;12.50;4.70;;;;;;;1.51;100.00;98403.69;4804064;29;20069;-60
2022/01/06 05:47:02;;;;;;;12.43;3.67;;;;;;;1.44;100.00;98390.34;4804074;29;20373;-60
2022/01/06 05:49:28;;;;;;;9.60;4.20;;;;;;;1.48;100.00;98398.78;4803805;29;20085;-60
2022/01/06 05:51:53;;;;;;;10.70;5.37;;;;;;;1.52;100.00;98395.66;4803937;29;20306;-60
2022/01/06 05:54:19;;;;;;;9.70;4.20;;;;;;;1.54;100.00;98392.88;4803852;29;20043;-60
2022/01/06 05:56:44;;;;;;;8.83;4.23;;;;;;;1.43;100.00;98396.59;4803917;29;20057;-60
2022/01/06 05:59:10;;;;;;;9.13;4.40;;;;;;;1.53;100.00;98404.38;4803896;29;20374;-61
2022/01/06 06:01:36;;;;;;;10.93;5.33;;;;;;;1.58;100.00;98404.75;4803852;29;20035;-61
2022/01/06 06:04:01;;;;;;;8.60;4.50;;;;;;;1.50;100.00;98402.88;4803778;29;20533;-60
2022/01/06 06:06:26;;;;;;;11.00;4.53;;;;;;;1.41;100.00;98407.28;4803758;29;20073;-60
2022/01/06 06:08:52;;;;;;;10.43;4.27;;;;;;;1.49;100.00;98419.69;4803731;29;20461;-60
2022/01/06 06:11:21;;;;;;;11.90;5.07;;;;;;;1.52;100.00;98416.72;4803507;29;20034;-61
2022/01/06 06:13:46;;;;;;;9.40;4.50;;;;;;;1.45;100.00;98410.44;4804747;29;20113;-61
2022/01/06 06:16:12;;;;;;;9.10;4.70;;;;;;;1.44;100.00;98422.78;4807045;29;20353;-60
2022/01/06 06:18:38;;;;;;;8.27;4.23;;;;;;;1.44;100.00;98421.94;4806723;29;20397;-61
2022/01/06 06:21:06;;;;;;;11.47;5.43;;;;;;;1.36;100.00;98427.19;4806866;29;20107;-60
2022/01/06 06:23:31;;;;;;;11.13;5.27;;;;;;;1.50;100.00;98409.97;4806896;29;20034;-61
2022/01/06 06:25:57;;;;;;;12.10;4.90;;;;;;;1.53;100.00;98428.06;4806736;29;20295;-61
2022/01/06 06:28:22;;;;;;;8.27;4.50;;;;;;;1.63;100.00;98442.78;4806681;29;20046;-60
2022/01/06 06:30:48;;;;;;;9.87;4.80;;;;;;;1.48;100.00;98436.47;4806770;29;20039;-61
2022/01/06 06:33:14;;;;;;;10.40;4.80;;;;;;;1.56;100.00;98433.03;4806633;29;20508;-60
2022/01/06 06:35:39;;;;;;;12.43;4.70;;;;;;;1.50;100.00;98437.09;4806651;29;20038;-60
2022/01/06 06:38:05;;;;;;;11.93;5.23;;;;;;;1.45;100.00;98442.03;4806659;29;20045;-60
2022/01/06 06:40:30;;;;;;;12.70;4.93;;;;;;;1.41;100.00;98443.31;4806484;29;20129;-60
2022/01/06 06:42:56;;;;;;;11.67;5.17;;;;;;;1.55;100.00;98444.53;4805439;29;20117;-62
2022/01/06 06:45:23;;;;;;;10.77;5.53;;;;;;;1.46;100.00;98435.78;4806439;29;20087;-60
2022/01/06 06:47:50;;;;;;;12.53;5.40;;;;;;;1.53;100.00;98436.81;4806445;29;20066;-61
2022/01/06 06:50:21;;;;;;;11.27;5.27;;;;;;;1.48;100.00;98441.72;4806285;29;20275;-60
2022/01/06 06:52:47;;;;;;;9.73;5.40;;;;;;;1.52;100.00;98442.22;4806456;29;20335;-61
2022/01/06 06:55:14;;;;;;;12.90;5.83;;;;;;;1.47;100.00;98433.97;4806316;29;20291;-60
2022/01/06 06:57:40;;;;;;;11.63;7.13;;;;;;;1.60;100.00;98427.31;4806379;29;20285;-61
2022/01/06 07:00:08;;;;;;;14.43;5.90;;;;;;;1.54;100.00;98433.19;4806310;29;20342;-60
2022/01/06 07:02:34;;;;;;;9.70;5.20;;;;;;;1.52;100.00;98439.59;4806190;29;20322;-61
2022/01/06 07:04:59;;;;;;;14.60;6.27;;;;;;;1.59;100.00;98435.38;4806355;29;20309;-61
2022/01/06 07:07:26;;;;;;;24.40;12.50;;;;;;;1.63;100.00;98440.13;4806098;29;20050;-61
2022/01/06 07:09:52;;;;;;;13.77;6.27;;;;;;;1.51;100.00;98445.84;4806097;29;20049;-61
2022/01/06 07:12:17;;;;;;;11.47;5.83;;;;;;;1.47;100.00;98450.59;4805117;29;20275;-61
2022/01/06 07:14:43;;;;;;;12.57;5.87;;;;;;;1.52;100.00;98453.56;4804806;29;20035;-61
2022/01/06 07:17:09;;;;;;;13.77;6.47;;;;;;;1.54;100.00;98458.69;4806186;29;20561;-61
2022/01/06 07:19:34;;;;;;;14.40;7.33;;;;;;;1.68;100.00;98463.38;4804729;29;20031;-61
2022/01/06 07:22:00;;;;;;;10.77;5.70;;;;;;;1.54;100.00;98456.88;4806065;29;20095;-61
2022/01/06 07:24:25;;;;;;;11.03;6.10;;;;;;;1.56;100.00;98462.00;4805472;29;20403;-61
2022/01/06 07:26:51;;;;;;;13.70;6.07;;;;;;;1.61;100.00;98457.94;4805370;29;20035;-61
2022/01/06 07:29:17;;;;;;;22.60;11.90;;;;;;;1.79;100.00;98471.00;4805737;29;20039;-61
2022/01/06 07:31:43;;;;;;;18.80;9.63;;;;;;;1.64;100.00;98472.56;4805400;29;20159;-61
2022/01/06 07:34:09;;;;;;;18.50;9.83;;;;;;;1.39;100.00;98482.13;4816871;29;20034;-61
2022/01/06 07:36:34;;;;;;;16.70;8.87;;;;;;;1.08;100.00;98484.38;4823820;29;20313;-60
2022/01/06 07:39:00;;;;;;;20.03;9.17;;;;;;;1.12;100.00;98480.47;4823741;29;20030;-60
2022/01/06 07:41:25;;;;;;;15.73;8.30;;;;;;;1.13;100.00;98495.28;4823603;29;20022;-61
2022/01/06 07:43:51;;;;;;;15.90;7.30;;;;;;;1.07;100.00;98494.06;4823636;29;20042;-60
2022/01/06 07:46:17;;;;;;;14.00;6.60;;;;;;;1.15;100.00;98497.75;4823665;29;20030;-61
2022/01/06 07:49:16;;;;;;;14.10;7.77;;;;;;;1.14;100.00;98504.00;4823483;29;20305;-61
2022/01/06 07:51:34;;;;;;;15.75;7.00;;;;;;;1.23;100.00;98500.44;4821501;29;20049;-61
2022/01/06 07:54:00;;;;;;;14.57;7.57;;;;;;;1.19;100.00;98501.72;4823572;29;20046;-61
2022/01/06 07:56:26;;;;;;;14.65;7.03;;;;;;;1.24;100.00;98502.09;4823425;29;20034;-61
2022/01/06 07:58:53;;;;;;;13.23;6.93;;;;;;;1.27;100.00;98497.34;4823461;29;20485;-61
2022/01/06 08:01:19;;;;;;;14.02;7.40;;;;;;;1.35;100.00;98502.69;4823345;29;20270;-61
2022/01/06 08:03:45;;;;;;;15.73;7.07;;;;;;;1.36;100.00;98501.72;4823416;29;20086;-61
2022/01/06 08:06:12;;;;;;;12.83;6.40;;;;;;;1.41;100.00;98509.13;4823652;29;20030;-64
2022/01/06 08:08:38;;;;;;;10.20;6.10;;;;;;;1.39;100.00;98516.34;4823294;29;20074;-63
2022/01/06 08:11:04;;;;;;;15.53;6.47;;;;;;;1.43;100.00;98512.44;4823290;29;20038;-60
2022/01/06 08:13:30;;;;;;;12.07;6.07;;;;;;;1.48;100.00;98514.63;4823281;29;20309;-61
2022/01/06 08:15:55;;;;;;;12.97;6.97;;;;;;;1.41;100.00;98522.28;4823236;29;20038;-62
2022/01/06 08:18:21;;;;;;;13.63;6.77;;;;;;;1.56;100.00;98522.56;4823196;29;20045;-62
2022/01/06 08:20:47;;;;;;;15.97;7.20;;;;;;;1.42;100.00;98519.50;4821951;29;20382;-62
2022/01/06 08:23:12;;;;;;;14.53;7.53;;;;;;;1.65;100.00;98519.81;4822834;29;20113;-62
2022/01/06 08:25:38;;;;;;;14.93;6.67;;;;;;;1.64;100.00;98519.97;4822947;29;20034;-63
2022/01/06 08:28:04;;;;;;;14.07;6.70;;;;;;;1.68;100.00;98522.16;4823156;29;20496;-63
2022/01/06 08:30:32;;;;;;;10.93;5.90;;;;;;;1.74;100.00;98528.59;4821773;29;20281;-63
2022/01/06 08:32:59;;;;;;;13.50;6.93;;;;;;;1.80;100.00;98523.53;4823071;29;20420;-62
2022/01/06 08:35:25;;;;;;;13.60;7.60;;;;;;;1.92;100.00;98528.53;4823006;29;20278;-61
2022/01/06 08:37:52;;;;;;;12.83;6.40;;;;;;;2.15;100.00;98533.13;4822809;29;20278;-62
2022/01/06 08:40:17;;;;;;;13.83;6.43;;;;;;;1.96;100.00;98532.53;4823063;29;20638;-61
2022/01/06 08:42:45;;;;;;;13.47;7.00;;;;;;;2.16;100.00;98536.56;4823018;29;20285;-64
2022/01/06 08:45:12;;;;;;;11.43;6.43;;;;;;;2.17;100.00;98527.69;4821795;29;20081;-59
2022/01/06 08:47:37;;;;;;;11.73;6.17;;;;;;;2.21;100.00;98528.19;4808979;29;20707;-60
2022/01/06 08:50:03;;;;;;;11.50;5.93;;;;;;;2.02;100.00;98535.34;4804631;29;20335;-59
2022/01/06 08:52:29;;;;;;;9.93;6.13;;;;;;;2.26;100.00;98528.53;4802534;29;20099;-59
2022/01/06 08:54:54;;;;;;;11.17;6.07;;;;;;;2.17;100.00;98540.88;4803731;29;21056;-59
2022/01/06 08:57:21;;;;;;;15.07;6.77;;;;;;;2.62;100.00;98543.19;4804368;29;20084;-59
2022/01/06 08:59:48;;;;;;;23.77;13.03;;;;;;;3.07;100.00;98534.03;4804419;29;20038;-58
2022/01/06 09:02:13;;;;;;;11.30;5.90;;;;;;;2.63;100.00;98544.00;4804365;29;20761;-59
2022/01/06 09:04:39;;;;;;;11.57;5.27;;;;;;;2.49;100.00;98553.34;4804297;29;20282;-59
2022/01/06 09:07:04;;;;;;;10.93;5.63;;;;;;;2.40;100.00;98563.03;4803110;29;20038;-59
2022/01/06 09:09:30;;;;;;;11.37;5.80;;;;;;;2.59;100.00;98553.22;4804253;29;20034;-58
2022/01/06 09:11:56;;;;;;;9.40;5.57;;;;;;;3.21;100.00;98551.88;4804204;29;20051;-58
2022/01/06 09:14:22;;;;;;;10.97;5.10;;;;;;;3.01;100.00;98561.06;4801602;29;20077;-59
2022/01/06 09:16:49;;;;;;;10.63;5.73;;;;;;;4.42;100.00;98540.22;4789276;29;20046;-60
2022/01/06 09:19:15;;;;;;;8.77;4.73;;;;;;;4.69;100.00;98552.19;4786293;29;20275;-60
2022/01/06 09:21:41;;;;;;;9.43;5.13;;;;;;;4.15;100.00;98545.97;4786317;29;20674;-59
2022/01/06 09:24:07;;;;;;;9.87;4.80;;;;;;;3.49;100.00;98552.34;4786220;29;20474;-59
2022/01/06 09:26:36;;;;;;;11.27;5.43;;;;;;;3.42;100.00;98556.66;4785964;29;20151;-58
2022/01/06 09:29:08;;;;;;;9.87;4.87;;;;;;;3.42;100.00;98568.03;4786116;29;20340;-59
2022/01/06 09:31:36;;;;;;;9.97;4.67;;;;;;;3.20;100.00;98558.13;4785911;29;20286;-59
2022/01/06 09:34:03;;;;;;;10.10;5.00;;;;;;;3.39;100.00;98565.72;4786185;29;20286;-60
2022/01/06 09:36:30;;;;;;;10.13;5.03;;;;;;;3.37;100.00;98564.22;4785916;29;20913;-59
2022/01/06 09:38:57;;;;;;;13.93;6.00;;;;;;;3.21;100.00;98557.13;4786116;29;20286;-60
2022/01/06 09:41:23;;;;;;;9.63;5.30;;;;;;;2.96;100.00;98572.13;4785872;29;20274;-60
2022/01/06 09:43:54;;;;;;;9.40;5.10;;;;;;;2.93;100.00;98588.25;4785980;29;20279;-59
2022/01/06 09:46:21;;;;;;;9.57;4.90;;;;;;;3.09;100.00;98575.13;4785845;29;20646;-60
2022/01/06 09:48:47;;;;;;;10.80;5.10;;;;;;;3.25;100.00;98569.00;4786831;29;20295;-59
2022/01/06 09:51:12;;;;;;;10.43;4.83;;;;;;;3.50;100.00;98569.84;4789436;29;20309;-58
2022/01/06 09:53:38;;;;;;;9.73;5.20;;;;;;;3.20;100.00;98566.03;4789205;29;20654;-59
2022/01/06 09:56:05;;;;;;;7.60;4.30;;;;;;;3.35;100.00;98571.47;4789292;29;20039;-59
2022/01/06 09:58:31;;;;;;;9.17;5.00;;;;;;;3.36;100.00;98571.31;4789299;29;20042;-59
2022/01/06 10:00:56;;;;;;;9.80;5.13;;;;;;;3.02;100.00;98574.09;4788616;29;20283;-59
2022/01/06 10:03:48;;;;;;;11.90;4.90;;;;;;;3.08;100.00;98575.28;4789506;29;20043;-58
2022/01/06 10:06:23;;;;;;;10.57;5.00;;;;;;;3.62;100.00;98571.16;4789236;29;20069;-59
2022/01/06 10:08:54;;;;;;;9.53;5.10;;;;;;;3.86;100.00;98578.25;4787994;29;20287;-59
2022/01/06 10:11:26;;;;;;;34.57;18.67;;;;;;;4.59;100.00;98568.28;4789192;29;20279;-59
2022/01/06 10:14:06;;;;;;;9.13;4.80;;;;;;;4.53;100.00;98576.06;4789204;29;20761;-59
2022/01/06 10:16:33;;;;;;;8.50;4.40;;;;;;;4.02;100.00;98574.75;4789436;29;20322;-59
2022/01/06 10:19:05;;;;;;;7.63;4.33;;;;;;;4.74;100.00;98584.22;4789011;30;20785;-58
2022/01/06 10:21:32;;;;;;;9.67;4.43;;;;;;;6.13;100.00;98582.22;4788871;29;20359;-61
2022/01/06 10:24:03;;;;;;;8.20;4.23;;;;;;;6.08;100.00;98576.66;4788968;29;20275;-60
2022/01/06 10:26:29;;;;;;;6.73;4.00;;;;;;;4.48;100.00;98587.19;4789031;29;20291;-61
2022/01/06 10:28:54;;;;;;;6.97;4.23;;;;;;;4.41;100.00;98575.63;4788626;29;20645;-61
2022/01/06 10:31:28;;;;;;;7.73;3.87;;;;;;;3.90;100.00;98590.13;4788822;29;20039;-61
2022/01/06 10:33:53;;;;;;;9.05;4.53;;;;;;;4.03;100.00;98579.88;4787558;30;20043;-59
2022/01/06 10:36:26;;;;;;;8.00;4.43;;;;;;;4.27;100.00;98577.16;4788564;29;20031;-59
2022/01/06 10:38:54;;;;;;;7.72;4.22;;;;;;;4.05;100.00;98571.75;4788388;29;20027;-60
2022/01/06 10:41:20;;;;;;;8.90;4.50;;;;;;;4.09;100.00;98576.53;4788710;29;20398;-59
2022/01/06 10:43:53;;;;;;;9.13;4.87;;;;;;;3.92;100.00;98575.75;4788509;29;20274;-59
2022/01/06 10:46:41;;;;;;;8.98;4.75;;;;;;;3.80;100.00;98600.06;4788594;29;20096;-59
2022/01/06 10:49:15;;;;;;;9.03;4.83;;;;;;;4.65;100.00;98583.47;4788354;29;20071;-60
2022/01/06 10:51:46;;;;;;;10.40;4.73;;;;;;;5.12;100.00;98579.06;4788467;29;20393;-61
2022/01/06 10:54:23;;;;;;;8.67;5.27;;;;;;;4.85;100.00;98580.38;4788504;29;20275;-61
2022/01/06 10:56:59;;;;;;;8.33;5.20;;;;;;;4.23;100.00;98585.59;4788306;29;20313;-61
2022/01/06 10:59:35;;;;;;;7.63;4.80;;;;;;;3.73;100.00;98593.78;4788094;29;20269;-58
2022/01/06 11:02:02;;;;;;;7.43;4.73;;;;;;;3.53;100.00;98582.72;4786999;30;20845;-59
2022/01/06 11:04:29;;;;;;;9.70;5.20;;;;;;;3.66;100.00;98598.09;4787061;30;20284;-59
2022/01/06 11:06:55;;;;;;;8.13;4.60;;;;;;;3.68;100.00;98602.22;4786956;29;20293;-59
2022/01/06 11:09:21;;;;;;;7.40;4.70;;;;;;;4.07;100.00;98604.13;4786958;30;20684;-59
2022/01/06 11:14:17;;;;;;;11.10;4.97;;;;;;;3.71;100.00;98606.31;4788372;29;20046;-59
2022/01/06 11:16:44;;;;;;;9.70;5.60;;;;;;;4.08;100.00;98600.50;4786759;30;20271;-60
2022/01/06 11:19:11;;;;;;;8.13;4.63;;;;;;;4.88;100.00;98607.34;4788005;29;20305;-59
2022/01/06 11:21:48;;;;;;;8.97;4.90;;;;;;;4.11;100.00;98608.09;4787899;29;20271;-60
2022/01/06 11:24:22;;;;;;;7.50;4.90;;;;;;;3.89;100.00;98610.47;4788204;29;20596;-60
2022/01/06 11:27:00;;;;;;;8.80;5.23;;;;;;;3.99;100.00;98613.75;4787653;29;20283;-61
2022/01/06 11:29:35;;;;;;;9.97;5.07;;;;;;;4.60;100.00;98609.63;4786646;30;20646;-60
2022/01/06 11:32:16;;;;;;;9.90;5.10;;;;;;;4.30;100.00;98623.59;4787901;29;20275;-60
2022/01/06 11:34:41;;;;;;;8.63;4.43;;;;;;;4.26;100.00;98615.19;4787789;29;20774;-60
2022/01/06 11:37:12;;;;;;;8.07;4.80;;;;;;;3.91;100.00;98629.63;4786621;30;20275;-60
2022/01/06 11:39:38;;;;;;;10.53;5.00;;;;;;;3.64;100.00;98624.66;4787826;29;20043;-61